Impacts TAF Board INFO
FOR SITUATIONAL AWARENESS. NOT TO BE USED FOR FLIGHT PLANNING PURPOSES.
IDs:

KIAH - Houston/Bush Intl, TX, US

Issued at 2345 UTC 27 May 2018
Updated at 0138 UTC 28 May 2018
Potential Impact None Slight Moderate High
Time0053Z 28/02Z 28/03Z 28/04Z 28/05Z 28/06Z 28/07Z 28/08Z 28/09Z 28/10Z 28/11Z 28/12Z 28/13Z 28/14Z>>
Type OBS PRVL PRVL PRVL PRVL PRVL PRVL PRVL PRVL PRVL PRVL PRVL PRVL PRVL
VIS 10 >6 >6 >6 >6 >6 >6 >6 >6 >6 >6 >6 >6 >6
CIG -- -- -- -- -- -- -- -- -- -- -- -- -- --
Cover SCT SCT SCT SCT SCT SCT SCT SCT SCT SCT SCT SCT SCT SCT
FltCat VFR VFR VFR VFR VFR VFR VFR VFR VFR VFR VFR VFR VFR VFR
WX -- -- -- -- -- -- -- -- -- -- -- -- -- --
WDir 120 120 120 120 120 VRB VRB VRB VRB VRB VRB VRB VRB VRB
WSpd 8 6 6 6 6 3 3 3 3 3 3 3 3 3
WGst -- -- -- -- -- -- -- -- -- -- -- -- -- --

Raw TAF
KIAH 272345Z 2800/2906 12011KT P6SM FEW045 SCT250
  FM280200 12006KT P6SM SCT050 SCT250
  FM280600 VRB03KT P6SM SCT250
  FM281500 36007KT P6SM SCT060
  FM290300 13003KT P6SM SKC


Raw METAR
KIAH 280053Z 12008KT 10SM FEW040 FEW080 SCT150 SCT300 29/22 A2979 RMK AO2 SLP088 T02890222 $
KIAH 272353Z 13012KT 10SM FEW040 FEW150 SCT300 30/23 A2978 RMK AO2 SLP083 T03000228 10333 20294 56005 $
KIAH 272253Z 12011KT 10SM FEW045 FEW150 SCT300 30/23 A2978 RMK AO2 WSHFT 2146 SLP084 T03000228 $

METAR Board
Radar Display
Forecast Discussion

FOR SITUATIONAL AWARENESS. NOT TO BE USED FOR FLIGHT PLANNING PURPOSES.